Impacts METAR Board
IDs:

KSAN - San Diego Intl Arpt, CA, US

Updated at: 1300 UTC 27 Feb 2021
Potential Impact None Slight Moderate High
Time 27/01Z 27/02Z 27/03Z 27/04Z 27/05Z 27/06Z 27/07Z 27/08Z 27/09Z 27/10Z 27/11Z 27/12Z 27/13Z
Temp65 61 60 59 58 56 56 59 58 58 55 56 56
Dewpt47 48 49 50 50 48 51 52 52 51 48 50 49
Altim29.94 29.94 29.94 29.95 29.96 29.97 29.97 29.95 29.95 29.95 29.94 29.93 29.93
VIS10 10 10 10 10 9 9 9 7 7 9 9 8
CIG-- -- -- -- -- -- 6 8 9 9 10 -- 12
CoverFEWSCTSCTFEWFEWFEWBKNBKNBKNBKNBKNSCTBKN
FltCatVFRVFRVFRVFRVFRVFRIFRIFRIFRIFRMVFRVFRMVFR
WX--------------------------
WDir2903100320000160170506013090
WSpd7 4 0 3 0 0 0 6 7 3 3 4 4
WGst-- -- -- -- -- -- -- -- -- -- -- -- --
Raw hourly METARs
KSAN 270051Z 29007KT 10SM FEW250 18/08 A2994 RMK AO2 SLP138 T01830083
KSAN 270151Z 31004KT 10SM SCT250 16/09 A2994 RMK AO2 SLP138 T01610089
KSAN 270251Z 00000KT 10SM SCT250 16/09 A2994 RMK AO2 SLP136 T01560094 56004
KSAN 270351Z 32003KT 10SM FEW250 15/10 A2995 RMK AO2 SLP141 T01500100
KSAN 270451Z 00000KT 10SM FEW250 14/10 A2996 RMK AO2 SLP144 T01440100
KSAN 270559Z 00000KT 9SM FEW005 FEW250 13/09 A2997 RMK AO2 T01330089
KSAN 270651Z 00000KT 9SM BKN006 13/11 A2997 RMK AO2 SLP149 CIG 004V008 T01330106
KSAN 270751Z 16006KT 9SM BKN008 15/11 A2995 RMK AO2 SLP143 T01500111 402330078
KSAN 270851Z 17007KT 7SM BKN009 14/11 A2995 RMK AO2 SLP141 T01440111 58008
KSAN 270951Z 05003KT 7SM BKN009 14/11 A2995 RMK AO2 SLP143 T01440106
KSAN 271051Z 06003KT 9SM BKN010 13/09 A2994 RMK AO2 SLP137 T01280089
KSAN 271151Z 13004KT 9SM SCT011 13/10 A2993 RMK AO2 SLP133 SCT V BKN T01330100 10150 20122 58008
KSAN 271251Z 09004KT 8SM BKN012 13/09 A2993 RMK AO2 SLP135 T01330094



Page loaded:  13:40 UTC  |   05:40 AM Pacific  |   06:40 AM Mountain  |   07:40 AM Central  |   08:40 AM Eastern

 

ADVISORIES

FORECASTS

FORECASTS

OBSERVATIONS

USER TOOLS

ABOUT US